sensor_id;sensor_type;location;lat;lon;timestamp;P1;durP1;ratioP1;P2;durP2;ratioP2
5040;SDS011;2539;52.568;13.364;2023-08-20T00:01:46;15.15;;;13.65;;
5040;SDS011;2539;52.568;13.364;2023-08-20T00:04:12;14.95;;;13.75;;
5040;SDS011;2539;52.568;13.364;2023-08-20T00:06:40;15.05;;;13.68;;
5040;SDS011;2539;52.568;13.364;2023-08-20T00:09:08;14.10;;;12.90;;
5040;SDS011;2539;52.568;13.364;2023-08-20T00:11:34;18.10;;;14.10;;
5040;SDS011;2539;52.568;13.364;2023-08-20T00:14:02;15.40;;;14.00;;
5040;SDS011;2539;52.568;13.364;2023-08-20T00:16:29;16.30;;;14.00;;
5040;SDS011;2539;52.568;13.364;2023-08-20T00:18:55;14.68;;;13.10;;
5040;SDS011;2539;52.568;13.364;2023-08-20T00:21:27;17.30;;;13.65;;
5040;SDS011;2539;52.568;13.364;2023-08-20T00:23:54;15.30;;;13.73;;
5040;SDS011;2539;52.568;13.364;2023-08-20T00:26:20;15.70;;;14.25;;
5040;SDS011;2539;52.568;13.364;2023-08-20T00:28:47;14.38;;;13.02;;
5040;SDS011;2539;52.568;13.364;2023-08-20T00:31:13;14.95;;;13.57;;
5040;SDS011;2539;52.568;13.364;2023-08-20T00:33:40;14.45;;;13.00;;
5040;SDS011;2539;52.568;13.364;2023-08-20T00:36:06;16.05;;;14.35;;
5040;SDS011;2539;52.568;13.364;2023-08-20T00:38:32;14.38;;;13.07;;
5040;SDS011;2539;52.568;13.364;2023-08-20T00:40:59;14.43;;;13.15;;
5040;SDS011;2539;52.568;13.364;2023-08-20T00:43:25;14.70;;;13.50;;
5040;SDS011;2539;52.568;13.364;2023-08-20T00:45:51;14.98;;;13.32;;
5040;SDS011;2539;52.568;13.364;2023-08-20T00:48:18;14.27;;;12.82;;
5040;SDS011;2539;52.568;13.364;2023-08-20T00:50:44;15.55;;;14.00;;
5040;SDS011;2539;52.568;13.364;2023-08-20T00:53:11;14.50;;;13.18;;
5040;SDS011;2539;52.568;13.364;2023-08-20T00:55:39;15.18;;;13.77;;
5040;SDS011;2539;52.568;13.364;2023-08-20T00:58:06;15.10;;;13.70;;
5040;SDS011;2539;52.568;13.364;2023-08-20T01:00:33;14.57;;;13.38;;
5040;SDS011;2539;52.568;13.364;2023-08-20T01:02:59;15.52;;;13.02;;
5040;SDS011;2539;52.568;13.364;2023-08-20T01:05:25;13.90;;;12.50;;
5040;SDS011;2539;52.568;13.364;2023-08-20T01:07:58;14.68;;;13.02;;
5040;SDS011;2539;52.568;13.364;2023-08-20T01:10:39;14.75;;;13.45;;
5040;SDS011;2539;52.568;13.364;2023-08-20T01:13:11;14.80;;;12.90;;
5040;SDS011;2539;52.568;13.364;2023-08-20T01:15:37;15.07;;;13.35;;
5040;SDS011;2539;52.568;13.364;2023-08-20T01:18:02;14.55;;;13.25;;
5040;SDS011;2539;52.568;13.364;2023-08-20T01:20:33;14.38;;;12.93;;
5040;SDS011;2539;52.568;13.364;2023-08-20T01:26:03;13.85;;;12.57;;
5040;SDS011;2539;52.568;13.364;2023-08-20T01:28:44;14.20;;;12.65;;
5040;SDS011;2539;52.568;13.364;2023-08-20T01:31:11;15.80;;;14.30;;
5040;SDS011;2539;52.568;13.364;2023-08-20T01:33:38;14.43;;;13.02;;
5040;SDS011;2539;52.568;13.364;2023-08-20T01:36:06;15.15;;;13.75;;
5040;SDS011;2539;52.568;13.364;2023-08-20T01:38:36;15.47;;;13.87;;
5040;SDS011;2539;52.568;13.364;2023-08-20T01:41:03;14.52;;;13.13;;
5040;SDS011;2539;52.568;13.364;2023-08-20T01:43:29;15.30;;;13.70;;
5040;SDS011;2539;52.568;13.364;2023-08-20T01:45:56;13.93;;;12.80;;
5040;SDS011;2539;52.568;13.364;2023-08-20T01:48:22;15.30;;;13.70;;
5040;SDS011;2539;52.568;13.364;2023-08-20T01:50:48;15.18;;;13.85;;
5040;SDS011;2539;52.568;13.364;2023-08-20T01:53:14;14.67;;;13.27;;
5040;SDS011;2539;52.568;13.364;2023-08-20T01:55:41;16.00;;;14.40;;
5040;SDS011;2539;52.568;13.364;2023-08-20T01:58:07;15.10;;;13.60;;
5040;SDS011;2539;52.568;13.364;2023-08-20T02:00:33;14.00;;;12.70;;
5040;SDS011;2539;52.568;13.364;2023-08-20T02:02:59;15.43;;;13.98;;
5040;SDS011;2539;52.568;13.364;2023-08-20T02:05:26;15.80;;;14.20;;
5040;SDS011;2539;52.568;13.364;2023-08-20T02:07:53;15.55;;;14.00;;
5040;SDS011;2539;52.568;13.364;2023-08-20T02:10:19;14.30;;;13.03;;
5040;SDS011;2539;52.568;13.364;2023-08-20T02:12:47;14.77;;;13.50;;
5040;SDS011;2539;52.568;13.364;2023-08-20T02:15:13;14.37;;;12.97;;
5040;SDS011;2539;52.568;13.364;2023-08-20T02:17:39;15.10;;;13.70;;
5040;SDS011;2539;52.568;13.364;2023-08-20T02:20:05;15.10;;;13.80;;
5040;SDS011;2539;52.568;13.364;2023-08-20T02:22:38;15.57;;;14.00;;
5040;SDS011;2539;52.568;13.364;2023-08-20T02:25:04;14.03;;;12.87;;
5040;SDS011;2539;52.568;13.364;2023-08-20T02:27:31;14.57;;;13.00;;
5040;SDS011;2539;52.568;13.364;2023-08-20T02:29:58;15.17;;;13.77;;
5040;SDS011;2539;52.568;13.364;2023-08-20T02:32:25;15.87;;;14.50;;
5040;SDS011;2539;52.568;13.364;2023-08-20T02:34:51;19.30;;;13.73;;
5040;SDS011;2539;52.568;13.364;2023-08-20T02:37:17;13.20;;;12.10;;
5040;SDS011;2539;52.568;13.364;2023-08-20T02:39:44;14.17;;;12.83;;
5040;SDS011;2539;52.568;13.364;2023-08-20T02:42:10;14.80;;;13.03;;
5040;SDS011;2539;52.568;13.364;2023-08-20T02:44:36;15.70;;;14.10;;
5040;SDS011;2539;52.568;13.364;2023-08-20T02:47:03;15.60;;;14.10;;
5040;SDS011;2539;52.568;13.364;2023-08-20T02:49:29;15.27;;;13.97;;
5040;SDS011;2539;52.568;13.364;2023-08-20T02:51:55;14.90;;;13.57;;
5040;SDS011;2539;52.568;13.364;2023-08-20T02:54:21;14.50;;;13.20;;
5040;SDS011;2539;52.568;13.364;2023-08-20T02:56:48;14.53;;;13.13;;
5040;SDS011;2539;52.568;13.364;2023-08-20T02:59:14;16.67;;;13.77;;
5040;SDS011;2539;52.568;13.364;2023-08-20T03:01:40;14.60;;;13.13;;
5040;SDS011;2539;52.568;13.364;2023-08-20T03:04:06;15.60;;;13.80;;
5040;SDS011;2539;52.568;13.364;2023-08-20T03:06:33;15.67;;;14.27;;
5040;SDS011;2539;52.568;13.364;2023-08-20T03:08:59;15.43;;;13.90;;
5040;SDS011;2539;52.568;13.364;2023-08-20T03:11:25;14.97;;;13.67;;
5040;SDS011;2539;52.568;13.364;2023-08-20T03:13:51;16.13;;;13.17;;
5040;SDS011;2539;52.568;13.364;2023-08-20T03:16:18;15.67;;;14.17;;
5040;SDS011;2539;52.568;13.364;2023-08-20T03:18:44;14.87;;;13.30;;
5040;SDS011;2539;52.568;13.364;2023-08-20T03:21:10;15.40;;;13.87;;
5040;SDS011;2539;52.568;13.364;2023-08-20T03:23:36;15.67;;;13.80;;
5040;SDS011;2539;52.568;13.364;2023-08-20T03:26:03;15.33;;;13.80;;
5040;SDS011;2539;52.568;13.364;2023-08-20T03:28:29;16.50;;;14.90;;
5040;SDS011;2539;52.568;13.364;2023-08-20T03:30:58;15.57;;;13.90;;
5040;SDS011;2539;52.568;13.364;2023-08-20T03:33:25;16.33;;;14.00;;
5040;SDS011;2539;52.568;13.364;2023-08-20T03:35:50;15.40;;;13.90;;
5040;SDS011;2539;52.568;13.364;2023-08-20T03:38:16;16.07;;;14.03;;
5040;SDS011;2539;52.568;13.364;2023-08-20T03:40:41;14.90;;;13.50;;
5040;SDS011;2539;52.568;13.364;2023-08-20T03:43:08;15.50;;;14.10;;
5040;SDS011;2539;52.568;13.364;2023-08-20T03:45:34;15.67;;;14.27;;
5040;SDS011;2539;52.568;13.364;2023-08-20T03:48:00;15.50;;;13.90;;
5040;SDS011;2539;52.568;13.364;2023-08-20T03:50:26;15.50;;;13.80;;
5040;SDS011;2539;52.568;13.364;2023-08-20T03:52:52;16.60;;;14.00;;
5040;SDS011;2539;52.568;13.364;2023-08-20T03:55:19;15.20;;;13.67;;
5040;SDS011;2539;52.568;13.364;2023-08-20T03:57:45;15.57;;;14.03;;
5040;SDS011;2539;52.568;13.364;2023-08-20T04:00:12;15.47;;;14.07;;
5040;SDS011;2539;52.568;13.364;2023-08-20T04:02:38;15.83;;;14.53;;
5040;SDS011;2539;52.568;13.364;2023-08-20T04:05:05;15.53;;;14.00;;
5040;SDS011;2539;52.568;13.364;2023-08-20T04:07:31;14.83;;;13.33;;
5040;SDS011;2539;52.568;13.364;2023-08-20T04:09:58;16.63;;;15.10;;
5040;SDS011;2539;52.568;13.364;2023-08-20T04:12:24;16.30;;;14.63;;
5040;SDS011;2539;52.568;13.364;2023-08-20T04:14:50;18.20;;;15.60;;
5040;SDS011;2539;52.568;13.364;2023-08-20T04:17:16;16.20;;;14.60;;
5040;SDS011;2539;52.568;13.364;2023-08-20T04:19:42;16.33;;;14.73;;
5040;SDS011;2539;52.568;13.364;2023-08-20T04:22:09;16.30;;;14.90;;
5040;SDS011;2539;52.568;13.364;2023-08-20T04:24:35;17.70;;;15.90;;
5040;SDS011;2539;52.568;13.364;2023-08-20T04:27:01;17.13;;;15.23;;
5040;SDS011;2539;52.568;13.364;2023-08-20T04:29:27;16.60;;;14.43;;
5040;SDS011;2539;52.568;13.364;2023-08-20T04:31:53;16.20;;;14.60;;
5040;SDS011;2539;52.568;13.364;2023-08-20T04:34:20;17.33;;;15.77;;
5040;SDS011;2539;52.568;13.364;2023-08-20T04:36:46;17.77;;;16.07;;
5040;SDS011;2539;52.568;13.364;2023-08-20T04:39:12;17.10;;;15.30;;
5040;SDS011;2539;52.568;13.364;2023-08-20T04:41:38;16.70;;;15.10;;
5040;SDS011;2539;52.568;13.364;2023-08-20T04:44:05;17.47;;;15.77;;
5040;SDS011;2539;52.568;13.364;2023-08-20T04:46:31;16.93;;;15.27;;
5040;SDS011;2539;52.568;13.364;2023-08-20T04:48:57;17.83;;;16.07;;
5040;SDS011;2539;52.568;13.364;2023-08-20T04:51:23;18.60;;;16.70;;
5040;SDS011;2539;52.568;13.364;2023-08-20T04:53:50;17.10;;;15.50;;
5040;SDS011;2539;52.568;13.364;2023-08-20T04:56:16;16.63;;;15.10;;
5040;SDS011;2539;52.568;13.364;2023-08-20T04:58:42;20.23;;;15.20;;
5040;SDS011;2539;52.568;13.364;2023-08-20T05:01:09;17.60;;;16.00;;
5040;SDS011;2539;52.568;13.364;2023-08-20T05:03:35;19.03;;;17.20;;
5040;SDS011;2539;52.568;13.364;2023-08-20T05:06:01;18.47;;;16.60;;
5040;SDS011;2539;52.568;13.364;2023-08-20T05:08:28;17.57;;;15.87;;
5040;SDS011;2539;52.568;13.364;2023-08-20T05:10:55;18.80;;;16.90;;
5040;SDS011;2539;52.568;13.364;2023-08-20T05:13:21;17.80;;;16.00;;
5040;SDS011;2539;52.568;13.364;2023-08-20T05:15:47;18.87;;;17.07;;
5040;SDS011;2539;52.568;13.364;2023-08-20T05:18:13;19.23;;;17.40;;
5040;SDS011;2539;52.568;13.364;2023-08-20T05:20:40;19.13;;;17.17;;
5040;SDS011;2539;52.568;13.364;2023-08-20T05:23:07;18.53;;;16.93;;
5040;SDS011;2539;52.568;13.364;2023-08-20T05:25:33;19.43;;;17.40;;
5040;SDS011;2539;52.568;13.364;2023-08-20T05:27:59;19.50;;;17.70;;
5040;SDS011;2539;52.568;13.364;2023-08-20T05:30:27;20.10;;;18.00;;
5040;SDS011;2539;52.568;13.364;2023-08-20T05:32:53;20.20;;;17.90;;
5040;SDS011;2539;52.568;13.364;2023-08-20T05:35:19;18.83;;;16.93;;
5040;SDS011;2539;52.568;13.364;2023-08-20T05:37:45;18.20;;;16.53;;
5040;SDS011;2539;52.568;13.364;2023-08-20T05:40:12;18.97;;;17.07;;
5040;SDS011;2539;52.568;13.364;2023-08-20T05:42:38;19.93;;;18.00;;
5040;SDS011;2539;52.568;13.364;2023-08-20T05:45:04;20.40;;;17.30;;
5040;SDS011;2539;52.568;13.364;2023-08-20T05:47:31;19.90;;;17.80;;
5040;SDS011;2539;52.568;13.364;2023-08-20T05:49:57;18.90;;;16.90;;
5040;SDS011;2539;52.568;13.364;2023-08-20T05:52:23;18.97;;;17.10;;
5040;SDS011;2539;52.568;13.364;2023-08-20T05:54:50;18.00;;;16.20;;
5040;SDS011;2539;52.568;13.364;2023-08-20T05:57:16;18.53;;;16.73;;
5040;SDS011;2539;52.568;13.364;2023-08-20T05:59:42;19.10;;;17.40;;
5040;SDS011;2539;52.568;13.364;2023-08-20T06:02:08;18.23;;;16.43;;
5040;SDS011;2539;52.568;13.364;2023-08-20T06:04:35;18.60;;;16.90;;
5040;SDS011;2539;52.568;13.364;2023-08-20T06:07:01;18.73;;;16.73;;
5040;SDS011;2539;52.568;13.364;2023-08-20T06:09:28;19.33;;;17.33;;
5040;SDS011;2539;52.568;13.364;2023-08-20T06:11:54;20.80;;;16.60;;
5040;SDS011;2539;52.568;13.364;2023-08-20T06:14:20;20.07;;;17.93;;
5040;SDS011;2539;52.568;13.364;2023-08-20T06:16:46;18.93;;;17.00;;
5040;SDS011;2539;52.568;13.364;2023-08-20T06:19:13;18.70;;;16.70;;
5040;SDS011;2539;52.568;13.364;2023-08-20T06:21:39;19.63;;;17.53;;
5040;SDS011;2539;52.568;13.364;2023-08-20T06:24:05;18.57;;;16.77;;
5040;SDS011;2539;52.568;13.364;2023-08-20T06:26:32;18.33;;;16.63;;
5040;SDS011;2539;52.568;13.364;2023-08-20T06:28:58;18.13;;;16.40;;
5040;SDS011;2539;52.568;13.364;2023-08-20T06:31:24;20.43;;;18.47;;
5040;SDS011;2539;52.568;13.364;2023-08-20T06:33:51;18.63;;;16.77;;
5040;SDS011;2539;52.568;13.364;2023-08-20T06:36:17;17.30;;;15.50;;
5040;SDS011;2539;52.568;13.364;2023-08-20T06:38:43;18.00;;;15.23;;
5040;SDS011;2539;52.568;13.364;2023-08-20T06:41:09;19.03;;;15.00;;
5040;SDS011;2539;52.568;13.364;2023-08-20T06:43:36;21.70;;;17.07;;
5040;SDS011;2539;52.568;13.364;2023-08-20T06:46:02;17.40;;;15.55;;
5040;SDS011;2539;52.568;13.364;2023-08-20T06:48:28;17.43;;;15.47;;
5040;SDS011;2539;52.568;13.364;2023-08-20T06:50:54;16.83;;;15.23;;
5040;SDS011;2539;52.568;13.364;2023-08-20T06:53:21;19.23;;;15.67;;
5040;SDS011;2539;52.568;13.364;2023-08-20T06:55:47;18.42;;;15.45;;
5040;SDS011;2539;52.568;13.364;2023-08-20T06:58:13;17.88;;;15.98;;
5040;SDS011;2539;52.568;13.364;2023-08-20T07:00:39;19.93;;;16.40;;
5040;SDS011;2539;52.568;13.364;2023-08-20T07:03:05;18.43;;;16.30;;
5040;SDS011;2539;52.568;13.364;2023-08-20T07:05:32;18.47;;;16.60;;
5040;SDS011;2539;52.568;13.364;2023-08-20T07:07:58;17.97;;;16.23;;
5040;SDS011;2539;52.568;13.364;2023-08-20T07:10:24;18.57;;;16.77;;
5040;SDS011;2539;52.568;13.364;2023-08-20T07:12:50;22.10;;;16.67;;
5040;SDS011;2539;52.568;13.364;2023-08-20T07:15:17;16.70;;;15.03;;
5040;SDS011;2539;52.568;13.364;2023-08-20T07:17:42;17.43;;;15.43;;
5040;SDS011;2539;52.568;13.364;2023-08-20T07:20:08;17.33;;;15.53;;
5040;SDS011;2539;52.568;13.364;2023-08-20T07:22:34;17.00;;;15.20;;
5040;SDS011;2539;52.568;13.364;2023-08-20T07:24:59;15.80;;;14.20;;
5040;SDS011;2539;52.568;13.364;2023-08-20T07:27:26;18.10;;;15.20;;
5040;SDS011;2539;52.568;13.364;2023-08-20T07:29:52;16.60;;;14.90;;
5040;SDS011;2539;52.568;13.364;2023-08-20T07:32:19;18.58;;;14.98;;
5040;SDS011;2539;52.568;13.364;2023-08-20T07:34:45;17.13;;;15.50;;
5040;SDS011;2539;52.568;13.364;2023-08-20T07:37:11;18.10;;;16.17;;
5040;SDS011;2539;52.568;13.364;2023-08-20T07:39:37;17.70;;;16.07;;
5040;SDS011;2539;52.568;13.364;2023-08-20T07:42:04;18.90;;;16.90;;
5040;SDS011;2539;52.568;13.364;2023-08-20T07:44:30;17.77;;;15.97;;
5040;SDS011;2539;52.568;13.364;2023-08-20T07:46:56;17.13;;;15.33;;
5040;SDS011;2539;52.568;13.364;2023-08-20T07:49:22;19.57;;;17.23;;
5040;SDS011;2539;52.568;13.364;2023-08-20T07:51:47;17.43;;;15.73;;
5040;SDS011;2539;52.568;13.364;2023-08-20T07:54:13;17.50;;;15.80;;
5040;SDS011;2539;52.568;13.364;2023-08-20T07:56:40;17.20;;;15.50;;
5040;SDS011;2539;52.568;13.364;2023-08-20T07:59:06;17.73;;;16.03;;
5040;SDS011;2539;52.568;13.364;2023-08-20T08:01:32;14.80;;;13.47;;
5040;SDS011;2539;52.568;13.364;2023-08-20T08:04:01;15.33;;;13.80;;
5040;SDS011;2539;52.568;13.364;2023-08-20T08:06:27;16.20;;;14.50;;
5040;SDS011;2539;52.568;13.364;2023-08-20T08:08:53;18.43;;;16.67;;
5040;SDS011;2539;52.568;13.364;2023-08-20T08:11:19;14.50;;;13.10;;
5040;SDS011;2539;52.568;13.364;2023-08-20T08:13:46;13.20;;;11.90;;
5040;SDS011;2539;52.568;13.364;2023-08-20T08:16:12;13.70;;;12.40;;
5040;SDS011;2539;52.568;13.364;2023-08-20T08:18:38;13.55;;;12.18;;
5040;SDS011;2539;52.568;13.364;2023-08-20T08:21:05;15.33;;;12.50;;
5040;SDS011;2539;52.568;13.364;2023-08-20T08:23:31;13.80;;;12.40;;
5040;SDS011;2539;52.568;13.364;2023-08-20T08:25:57;13.20;;;11.90;;
5040;SDS011;2539;52.568;13.364;2023-08-20T08:28:23;14.00;;;11.50;;
5040;SDS011;2539;52.568;13.364;2023-08-20T08:30:50;11.03;;;9.80;;
5040;SDS011;2539;52.568;13.364;2023-08-20T08:33:16;10.83;;;9.70;;
5040;SDS011;2539;52.568;13.364;2023-08-20T08:35:42;10.25;;;9.35;;
5040;SDS011;2539;52.568;13.364;2023-08-20T08:38:09;10.10;;;9.20;;
5040;SDS011;2539;52.568;13.364;2023-08-20T08:40:35;10.10;;;9.07;;
5040;SDS011;2539;52.568;13.364;2023-08-20T08:43:02;10.10;;;9.10;;
5040;SDS011;2539;52.568;13.364;2023-08-20T08:45:29;8.80;;;8.00;;
5040;SDS011;2539;52.568;13.364;2023-08-20T08:47:55;7.95;;;7.15;;
5040;SDS011;2539;52.568;13.364;2023-08-20T08:50:22;8.38;;;7.50;;
5040;SDS011;2539;52.568;13.364;2023-08-20T08:52:50;7.13;;;6.47;;
5040;SDS011;2539;52.568;13.364;2023-08-20T08:55:17;7.07;;;6.38;;
5040;SDS011;2539;52.568;13.364;2023-08-20T08:57:43;8.00;;;6.53;;
5040;SDS011;2539;52.568;13.364;2023-08-20T09:00:09;8.18;;;6.30;;
5040;SDS011;2539;52.568;13.364;2023-08-20T09:02:36;8.65;;;6.72;;
5040;SDS011;2539;52.568;13.364;2023-08-20T09:05:02;7.10;;;6.32;;
5040;SDS011;2539;52.568;13.364;2023-08-20T09:07:30;7.70;;;6.20;;
5040;SDS011;2539;52.568;13.364;2023-08-20T09:09:59;6.38;;;5.80;;
5040;SDS011;2539;52.568;13.364;2023-08-20T09:12:25;6.80;;;6.18;;
5040;SDS011;2539;52.568;13.364;2023-08-20T09:14:52;6.43;;;5.82;;
5040;SDS011;2539;52.568;13.364;2023-08-20T09:17:20;6.35;;;5.75;;
5040;SDS011;2539;52.568;13.364;2023-08-20T09:19:46;5.90;;;5.40;;
5040;SDS011;2539;52.568;13.364;2023-08-20T09:22:13;8.13;;;4.82;;
5040;SDS011;2539;52.568;13.364;2023-08-20T09:24:51;7.40;;;4.93;;
5040;SDS011;2539;52.568;13.364;2023-08-20T09:27:22;5.68;;;5.18;;
5040;SDS011;2539;52.568;13.364;2023-08-20T09:29:50;7.07;;;5.70;;
5040;SDS011;2539;52.568;13.364;2023-08-20T09:32:18;5.82;;;5.28;;
5040;SDS011;2539;52.568;13.364;2023-08-20T09:34:47;6.30;;;5.70;;
5040;SDS011;2539;52.568;13.364;2023-08-20T09:37:14;8.25;;;7.50;;
5040;SDS011;2539;52.568;13.364;2023-08-20T09:39:42;8.20;;;5.10;;
5040;SDS011;2539;52.568;13.364;2023-08-20T09:42:09;6.00;;;5.30;;
5040;SDS011;2539;52.568;13.364;2023-08-20T09:44:37;9.15;;;4.75;;
5040;SDS011;2539;52.568;13.364;2023-08-20T09:47:08;6.43;;;5.32;;
5040;SDS011;2539;52.568;13.364;2023-08-20T09:49:41;5.60;;;5.10;;
5040;SDS011;2539;52.568;13.364;2023-08-20T09:52:10;6.97;;;5.70;;
5040;SDS011;2539;52.568;13.364;2023-08-20T09:57:32;7.95;;;7.28;;
5040;SDS011;2539;52.568;13.364;2023-08-20T10:00:00;9.00;;;8.20;;
5040;SDS011;2539;52.568;13.364;2023-08-20T10:02:29;5.25;;;4.75;;
5040;SDS011;2539;52.568;13.364;2023-08-20T10:04:55;5.03;;;4.53;;
5040;SDS011;2539;52.568;13.364;2023-08-20T10:07:22;6.25;;;4.55;;
5040;SDS011;2539;52.568;13.364;2023-08-20T10:09:50;10.15;;;5.57;;
5040;SDS011;2539;52.568;13.364;2023-08-20T10:12:17;5.00;;;4.30;;
5040;SDS011;2539;52.568;13.364;2023-08-20T10:14:44;5.78;;;4.45;;
5040;SDS011;2539;52.568;13.364;2023-08-20T10:17:11;5.30;;;3.88;;
5040;SDS011;2539;52.568;13.364;2023-08-20T10:19:37;6.00;;;3.80;;
5040;SDS011;2539;52.568;13.364;2023-08-20T10:22:04;4.03;;;3.63;;
5040;SDS011;2539;52.568;13.364;2023-08-20T10:24:39;3.60;;;3.30;;
5040;SDS011;2539;52.568;13.364;2023-08-20T10:27:07;6.70;;;3.58;;
5040;SDS011;2539;52.568;13.364;2023-08-20T10:29:36;3.30;;;3.00;;
5040;SDS011;2539;52.568;13.364;2023-08-20T10:32:11;4.38;;;2.90;;
5040;SDS011;2539;52.568;13.364;2023-08-20T10:34:38;4.78;;;2.85;;
5040;SDS011;2539;52.568;13.364;2023-08-20T10:37:09;2.97;;;2.60;;
5040;SDS011;2539;52.568;13.364;2023-08-20T10:39:36;3.90;;;2.60;;
5040;SDS011;2539;52.568;13.364;2023-08-20T10:47:47;4.35;;;2.55;;
5040;SDS011;2539;52.568;13.364;2023-08-20T10:50:17;7.65;;;6.88;;
5040;SDS011;2539;52.568;13.364;2023-08-20T10:52:48;4.18;;;3.78;;
5040;SDS011;2539;52.568;13.364;2023-08-20T10:55:15;4.05;;;3.08;;
5040;SDS011;2539;52.568;13.364;2023-08-20T10:57:48;3.20;;;2.90;;
5040;SDS011;2539;52.568;13.364;2023-08-20T11:00:25;16.88;;;14.93;;
5040;SDS011;2539;52.568;13.364;2023-08-20T11:02:52;3.65;;;3.35;;
5040;SDS011;2539;52.568;13.364;2023-08-20T11:05:19;3.65;;;2.60;;
5040;SDS011;2539;52.568;13.364;2023-08-20T11:07:47;3.60;;;2.70;;
5040;SDS011;2539;52.568;13.364;2023-08-20T11:10:15;3.40;;;2.83;;
5040;SDS011;2539;52.568;13.364;2023-08-20T11:12:43;2.45;;;2.20;;
5040;SDS011;2539;52.568;13.364;2023-08-20T11:15:11;3.63;;;2.20;;
5040;SDS011;2539;52.568;13.364;2023-08-20T11:17:41;5.05;;;2.28;;
5040;SDS011;2539;52.568;13.364;2023-08-20T11:20:10;6.05;;;2.55;;
5040;SDS011;2539;52.568;13.364;2023-08-20T11:22:40;2.90;;;2.40;;
5040;SDS011;2539;52.568;13.364;2023-08-20T11:25:10;2.78;;;2.30;;
5040;SDS011;2539;52.568;13.364;2023-08-20T11:27:41;5.53;;;2.55;;
5040;SDS011;2539;52.568;13.364;2023-08-20T11:30:11;4.97;;;3.58;;
5040;SDS011;2539;52.568;13.364;2023-08-20T11:32:38;8.45;;;7.30;;
5040;SDS011;2539;52.568;13.364;2023-08-20T11:35:05;3.63;;;3.20;;
5040;SDS011;2539;52.568;13.364;2023-08-20T11:37:33;3.75;;;3.35;;
5040;SDS011;2539;52.568;13.364;2023-08-20T11:40:00;3.58;;;2.97;;
5040;SDS011;2539;52.568;13.364;2023-08-20T11:42:26;4.72;;;2.70;;
5040;SDS011;2539;52.568;13.364;2023-08-20T11:44:54;5.78;;;3.25;;
5040;SDS011;2539;52.568;13.364;2023-08-20T11:47:22;4.90;;;2.40;;
5040;SDS011;2539;52.568;13.364;2023-08-20T11:49:56;3.33;;;2.45;;
5040;SDS011;2539;52.568;13.364;2023-08-20T11:52:31;3.35;;;2.60;;
5040;SDS011;2539;52.568;13.364;2023-08-20T11:54:58;2.80;;;2.50;;
5040;SDS011;2539;52.568;13.364;2023-08-20T11:57:29;3.70;;;2.60;;
5040;SDS011;2539;52.568;13.364;2023-08-20T11:59:59;5.05;;;2.35;;
5040;SDS011;2539;52.568;13.364;2023-08-20T12:02:30;5.97;;;3.53;;
5040;SDS011;2539;52.568;13.364;2023-08-20T12:04:56;5.15;;;2.95;;
5040;SDS011;2539;52.568;13.364;2023-08-20T12:07:27;3.53;;;3.08;;
5040;SDS011;2539;52.568;13.364;2023-08-20T12:09:53;3.50;;;2.25;;
5040;SDS011;2539;52.568;13.364;2023-08-20T12:12:20;3.15;;;2.47;;
5040;SDS011;2539;52.568;13.364;2023-08-20T12:14:47;3.92;;;2.70;;
5040;SDS011;2539;52.568;13.364;2023-08-20T12:17:18;3.45;;;2.13;;
5040;SDS011;2539;52.568;13.364;2023-08-20T12:19:44;3.17;;;2.10;;
5040;SDS011;2539;52.568;13.364;2023-08-20T12:22:10;3.40;;;2.30;;
5040;SDS011;2539;52.568;13.364;2023-08-20T12:24:37;4.45;;;2.50;;
5040;SDS011;2539;52.568;13.364;2023-08-20T12:27:03;2.50;;;2.08;;
5040;SDS011;2539;52.568;13.364;2023-08-20T12:29:29;3.97;;;3.25;;
5040;SDS011;2539;52.568;13.364;2023-08-20T12:31:56;5.97;;;5.45;;
5040;SDS011;2539;52.568;13.364;2023-08-20T12:34:22;7.40;;;6.70;;
5040;SDS011;2539;52.568;13.364;2023-08-20T12:36:49;5.07;;;4.57;;
5040;SDS011;2539;52.568;13.364;2023-08-20T12:39:15;6.45;;;2.60;;
5040;SDS011;2539;52.568;13.364;2023-08-20T12:41:42;3.28;;;2.95;;
5040;SDS011;2539;52.568;13.364;2023-08-20T12:44:08;2.65;;;2.10;;
5040;SDS011;2539;52.568;13.364;2023-08-20T12:46:35;4.18;;;2.30;;
5040;SDS011;2539;52.568;13.364;2023-08-20T12:49:01;3.00;;;2.50;;
5040;SDS011;2539;52.568;13.364;2023-08-20T12:51:27;5.43;;;2.17;;
5040;SDS011;2539;52.568;13.364;2023-08-20T12:53:54;2.83;;;2.33;;
5040;SDS011;2539;52.568;13.364;2023-08-20T12:56:20;3.15;;;2.30;;
5040;SDS011;2539;52.568;13.364;2023-08-20T12:58:46;3.00;;;2.50;;
5040;SDS011;2539;52.568;13.364;2023-08-20T13:01:12;3.92;;;2.55;;
5040;SDS011;2539;52.568;13.364;2023-08-20T13:03:39;12.75;;;11.50;;
5040;SDS011;2539;52.568;13.364;2023-08-20T13:06:06;13.43;;;11.75;;
5040;SDS011;2539;52.568;13.364;2023-08-20T13:08:32;3.65;;;3.15;;
5040;SDS011;2539;52.568;13.364;2023-08-20T13:10:59;4.40;;;4.00;;
5040;SDS011;2539;52.568;13.364;2023-08-20T13:13:27;16.65;;;15.18;;
5040;SDS011;2539;52.568;13.364;2023-08-20T13:15:53;5.45;;;4.95;;
5040;SDS011;2539;52.568;13.364;2023-08-20T13:18:20;3.33;;;2.30;;
5040;SDS011;2539;52.568;13.364;2023-08-20T13:20:51;4.82;;;3.65;;
5040;SDS011;2539;52.568;13.364;2023-08-20T13:23:20;2.13;;;1.52;;
5040;SDS011;2539;52.568;13.364;2023-08-20T13:25:47;3.75;;;1.70;;
5040;SDS011;2539;52.568;13.364;2023-08-20T13:28:13;3.42;;;1.95;;
5040;SDS011;2539;52.568;13.364;2023-08-20T13:30:40;3.15;;;1.77;;
5040;SDS011;2539;52.568;13.364;2023-08-20T13:33:06;2.72;;;1.50;;
5040;SDS011;2539;52.568;13.364;2023-08-20T13:35:33;4.82;;;1.95;;
5040;SDS011;2539;52.568;13.364;2023-08-20T13:37:59;5.35;;;3.05;;
5040;SDS011;2539;52.568;13.364;2023-08-20T13:40:25;12.55;;;9.68;;
5040;SDS011;2539;52.568;13.364;2023-08-20T13:42:52;7.78;;;5.80;;
5040;SDS011;2539;52.568;13.364;2023-08-20T13:45:18;12.30;;;8.70;;
5040;SDS011;2539;52.568;13.364;2023-08-20T13:47:44;6.50;;;4.45;;
5040;SDS011;2539;52.568;13.364;2023-08-20T13:50:10;4.68;;;4.18;;
5040;SDS011;2539;52.568;13.364;2023-08-20T13:52:37;3.33;;;2.05;;
5040;SDS011;2539;52.568;13.364;2023-08-20T13:55:03;4.45;;;2.80;;
5040;SDS011;2539;52.568;13.364;2023-08-20T13:57:30;4.63;;;1.95;;
5040;SDS011;2539;52.568;13.364;2023-08-20T13:59:56;2.50;;;1.70;;
5040;SDS011;2539;52.568;13.364;2023-08-20T14:02:22;6.95;;;3.30;;
5040;SDS011;2539;52.568;13.364;2023-08-20T14:04:48;2.72;;;1.40;;
5040;SDS011;2539;52.568;13.364;2023-08-20T14:07:15;2.95;;;1.80;;
5040;SDS011;2539;52.568;13.364;2023-08-20T14:09:41;3.20;;;1.20;;
5040;SDS011;2539;52.568;13.364;2023-08-20T14:12:07;4.50;;;1.20;;
5040;SDS011;2539;52.568;13.364;2023-08-20T14:14:33;2.30;;;1.30;;
5040;SDS011;2539;52.568;13.364;2023-08-20T14:17:00;2.92;;;1.48;;
5040;SDS011;2539;52.568;13.364;2023-08-20T14:19:26;17.00;;;14.88;;
5040;SDS011;2539;52.568;13.364;2023-08-20T14:21:52;9.98;;;9.07;;
5040;SDS011;2539;52.568;13.364;2023-08-20T14:24:17;2.83;;;1.90;;
5040;SDS011;2539;52.568;13.364;2023-08-20T14:26:43;1.95;;;1.20;;
5040;SDS011;2539;52.568;13.364;2023-08-20T14:29:09;3.13;;;1.27;;
5040;SDS011;2539;52.568;13.364;2023-08-20T14:31:35;14.25;;;10.35;;
5040;SDS011;2539;52.568;13.364;2023-08-20T14:34:01;3.75;;;2.33;;
5040;SDS011;2539;52.568;13.364;2023-08-20T14:36:28;6.78;;;6.07;;
5040;SDS011;2539;52.568;13.364;2023-08-20T14:38:54;11.05;;;8.80;;
5040;SDS011;2539;52.568;13.364;2023-08-20T14:41:20;3.75;;;2.65;;
5040;SDS011;2539;52.568;13.364;2023-08-20T14:43:46;20.83;;;18.42;;
5040;SDS011;2539;52.568;13.364;2023-08-20T14:46:13;7.65;;;6.93;;
5040;SDS011;2539;52.568;13.364;2023-08-20T14:48:39;5.00;;;4.05;;
5040;SDS011;2539;52.568;13.364;2023-08-20T14:51:07;4.72;;;3.67;;
5040;SDS011;2539;52.568;13.364;2023-08-20T14:53:33;3.60;;;2.13;;
5040;SDS011;2539;52.568;13.364;2023-08-20T14:56:00;9.40;;;6.63;;